Time;durP1;ratioP1;P1;durP2;ratioP2;P2;SDS_P1;SDS_P2;PMS_P1;PMS_P2;Temp;Humidity;BMP_temperature;BMP_pressure;BME280_temperature;BME280_humidity;BME280_pressure;Samples;Min_cycle;Max_cycle;Signal;HPM_P1;HPM_P2
2022/01/30 00:00:24;;;;;;;25.45;8.27;;;8.00;99.90;;;;;;5024241;28;20201;-77
2022/01/30 00:02:52;;;;;;;24.52;6.65;;;8.10;99.90;;;;;;5037013;28;20261;-78
2022/01/30 00:05:20;;;;;;;30.30;6.50;;;8.00;99.90;;;;;;5035533;28;20215;-78
2022/01/30 00:07:48;;;;;;;26.98;8.55;;;8.00;99.90;;;;;;5048501;28;20283;-78
2022/01/30 00:10:15;;;;;;;36.83;7.55;;;8.00;99.90;;;;;;5049503;28;20246;-77
2022/01/30 00:12:48;;;;;;;19.48;5.53;;;7.90;99.90;;;;;;5052798;28;20233;-79
2022/01/30 00:15:16;;;;;;;28.15;6.93;;;7.90;99.90;;;;;;5047717;28;20196;-80
2022/01/30 00:17:48;;;;;;;18.70;6.60;;;7.90;99.90;;;;;;5024736;28;20213;-77
2022/01/30 00:20:20;;;;;;;21.45;4.93;;;7.80;99.90;;;;;;5014700;28;20294;-80
2022/01/30 00:22:54;;;;;;;31.67;7.85;;;7.80;99.90;;;;;;5018898;28;20252;-78
2022/01/30 00:25:32;;;;;;;35.90;6.93;;;7.80;99.90;;;;;;5019608;28;20173;-77
2022/01/30 00:28:05;;;;;;;36.40;8.95;;;7.80;99.90;;;;;;5021203;28;20264;-79
2022/01/30 00:30:34;;;;;;;27.42;7.00;;;7.70;99.90;;;;;;5037670;28;20245;-77
2022/01/30 00:33:02;;;;;;;22.58;7.15;;;7.70;99.90;;;;;;5046952;28;20267;-78
2022/01/30 00:35:29;;;;;;;53.17;7.95;;;7.60;99.90;;;;;;5040569;28;20204;-78
2022/01/30 00:37:57;;;;;;;33.38;7.10;;;7.60;99.90;;;;;;5044242;28;20280;-79
2022/01/30 00:40:24;;;;;;;24.17;6.80;;;7.60;99.90;;;;;;5043671;28;20216;-77
2022/01/30 00:42:51;;;;;;;26.95;6.50;;;7.60;99.90;;;;;;5036308;28;20298;-76
2022/01/30 00:45:18;;;;;;;25.23;7.03;;;7.60;99.90;;;;;;5036196;28;20211;-77
2022/01/30 00:47:45;;;;;;;31.52;8.73;;;7.60;99.90;;;;;;5037324;28;20214;-78
2022/01/30 00:50:12;;;;;;;27.80;6.28;;;7.60;99.90;;;;;;5042040;28;20227;-77
2022/01/30 00:52:38;;;;;;;23.40;5.70;;;7.60;99.90;;;;;;5038683;28;20239;-79
2022/01/30 00:55:07;;;;;;;29.23;6.07;;;7.60;99.90;;;;;;5033359;28;20239;-79
2022/01/30 00:57:34;;;;;;;30.27;8.05;;;7.60;99.90;;;;;;5039906;28;20244;-78
2022/01/30 01:00:01;;;;;;;22.50;6.72;;;7.70;99.90;;;;;;5043832;28;20302;-79
2022/01/30 01:02:28;;;;;;;28.45;6.57;;;7.60;99.90;;;;;;5037683;28;20296;-79
2022/01/30 01:04:55;;;;;;;27.13;6.30;;;7.50;99.90;;;;;;5042488;28;20306;-77
2022/01/30 01:07:23;;;;;;;24.15;6.20;;;7.50;99.90;;;;;;5039590;28;20242;-76
2022/01/30 01:09:59;;;;;;;32.60;5.65;;;7.40;99.90;;;;;;5038047;28;20231;-77
2022/01/30 01:23:19;;;;;;;18.10;6.13;;;7.50;99.90;;;;;;5041529;28;20256;-78
2022/01/30 01:23:48;;;;;;;30.65;6.43;;;7.50;99.90;;;;;;5039052;28;20230;-77
2022/01/30 01:26:16;;;;;;;25.92;6.13;;;7.60;99.90;;;;;;5031894;28;20291;-79
2022/01/30 01:28:45;;;;;;;20.95;4.80;;;7.60;99.90;;;;;;5045006;28;20266;-79
2022/01/30 01:31:12;;;;;;;27.25;6.35;;;7.50;99.90;;;;;;5030953;28;20275;-78
2022/01/30 01:33:52;;;;;;;17.52;5.97;;;7.60;99.90;;;;;;5026907;28;20283;-79
2022/01/30 01:36:19;;;;;;;28.17;6.25;;;7.60;99.90;;;;;;5033565;28;20211;-80
2022/01/30 01:38:46;;;;;;;21.20;6.03;;;7.60;99.90;;;;;;5040327;28;20258;-79
2022/01/30 01:41:17;;;;;;;33.88;6.65;;;7.50;99.90;;;;;;5035520;28;20207;-78
2022/01/30 01:43:48;;;;;;;26.73;6.72;;;7.50;99.90;;;;;;5038697;28;20253;-79
2022/01/30 01:46:19;;;;;;;34.22;9.10;;;7.50;99.90;;;;;;5042199;28;20230;-79
2022/01/30 01:48:48;;;;;;;26.58;6.55;;;7.50;99.90;;;;;;5028067;28;20235;-79
2022/01/30 01:51:20;;;;;;;21.20;6.22;;;7.50;99.90;;;;;;5028546;28;20242;-79
2022/01/30 01:53:49;;;;;;;27.40;5.80;;;7.60;99.90;;;;;;5038111;28;20340;-78
2022/01/30 01:56:17;;;;;;;17.15;5.55;;;7.60;99.90;;;;;;5040844;28;20225;-78
2022/01/30 01:58:46;;;;;;;27.38;6.00;;;7.60;99.90;;;;;;5040318;28;20242;-77
2022/01/30 02:01:13;;;;;;;18.73;5.50;;;7.60;99.90;;;;;;5039625;28;20278;-80
2022/01/30 02:03:41;;;;;;;23.08;5.07;;;7.50;99.90;;;;;;5035796;28;20247;-79
2022/01/30 02:06:11;;;;;;;18.00;6.72;;;7.40;99.90;;;;;;5030254;28;20268;-78
2022/01/30 02:08:41;;;;;;;28.85;7.28;;;7.30;99.90;;;;;;5038295;28;20237;-80
2022/01/30 02:11:11;;;;;;;31.67;7.47;;;7.20;99.90;;;;;;5041130;28;20217;-80
2022/01/30 02:25:02;;;;;;;33.25;8.07;;;7.30;99.90;;;;;;5036636;28;20275;-80
2022/01/30 02:27:34;;;;;;;35.80;7.55;;;7.20;99.90;;;;;;5036422;28;20241;-78
2022/01/30 02:30:01;;;;;;;26.83;7.50;;;7.30;99.90;;;;;;5039627;28;20232;-78
2022/01/30 02:32:28;;;;;;;20.05;5.68;;;7.40;99.90;;;;;;5036647;28;20223;-78
2022/01/30 02:34:55;;;;;;;25.02;7.65;;;7.40;99.90;;;;;;5041861;28;20218;-78
2022/01/30 02:37:22;;;;;;;25.75;7.80;;;7.40;99.90;;;;;;5035464;28;20279;-77
2022/01/30 02:39:50;;;;;;;20.73;8.10;;;7.40;99.90;;;;;;5039267;28;20332;-78
2022/01/30 02:42:21;;;;;;;23.40;7.32;;;7.40;99.90;;;;;;5041739;28;20218;-79
2022/01/30 02:44:52;;;;;;;47.53;7.80;;;7.50;99.90;;;;;;5035088;28;20234;-78
2022/01/30 02:47:36;;;;;;;41.28;9.57;;;7.50;99.90;;;;;;5034609;28;20215;-77
2022/01/30 02:50:19;;;;;;;33.65;7.15;;;7.50;99.90;;;;;;5033864;28;20230;-77
2022/01/30 02:52:55;;;;;;;31.88;7.68;;;7.50;99.90;;;;;;5044174;28;20210;-79
2022/01/30 02:55:24;;;;;;;36.63;6.95;;;7.50;99.90;;;;;;5032436;28;20207;-78
2022/01/30 02:57:51;;;;;;;23.30;7.15;;;7.50;99.90;;;;;;5041170;28;20298;-80
2022/01/30 03:00:18;;;;;;;28.80;6.95;;;7.60;99.90;;;;;;5042538;28;20266;-78
2022/01/30 03:02:45;;;;;;;35.03;6.50;;;7.60;99.90;;;;;;5041262;28;20231;-78
2022/01/30 03:05:12;;;;;;;25.40;8.30;;;7.50;99.90;;;;;;5038814;28;20272;-78
2022/01/30 03:07:39;;;;;;;24.90;6.63;;;7.50;99.90;;;;;;5040460;28;20210;-78
2022/01/30 03:10:06;;;;;;;29.10;6.70;;;7.50;99.90;;;;;;5034963;28;20250;-77
2022/01/30 03:12:35;;;;;;;21.58;6.95;;;7.50;99.90;;;;;;5032739;28;20303;-77
2022/01/30 03:15:02;;;;;;;25.70;6.10;;;7.50;99.90;;;;;;5024709;28;20209;-78
2022/01/30 03:17:29;;;;;;;29.63;6.80;;;7.40;99.90;;;;;;5034954;28;20205;-78
2022/01/30 03:19:56;;;;;;;29.63;6.00;;;7.40;99.90;;;;;;5045627;28;20257;-77
2022/01/30 03:22:23;;;;;;;22.30;7.10;;;7.40;99.90;;;;;;5046775;28;20201;-76
2022/01/30 03:24:50;;;;;;;21.20;6.95;;;7.40;99.90;;;;;;5039350;28;20225;-75
2022/01/30 03:27:17;;;;;;;26.98;6.78;;;7.40;99.90;;;;;;5049514;28;20235;-77
2022/01/30 03:29:50;;;;;;;30.52;5.88;;;7.50;99.90;;;;;;5047676;28;20265;-76
2022/01/30 03:32:18;;;;;;;34.30;6.63;;;7.40;99.90;;;;;;5044653;28;20215;-78
2022/01/30 03:34:45;;;;;;;31.63;7.57;;;7.30;99.90;;;;;;5048454;28;20204;-77
2022/01/30 03:37:12;;;;;;;25.80;6.38;;;7.30;99.90;;;;;;5038060;28;20841;-80
2022/01/30 03:39:39;;;;;;;36.08;8.40;;;7.30;99.90;;;;;;5036975;28;20225;-77
2022/01/30 03:42:07;;;;;;;28.63;7.70;;;7.20;99.90;;;;;;5043183;28;20238;-79
2022/01/30 03:44:33;;;;;;;16.13;5.70;;;7.10;99.90;;;;;;5050085;28;20232;-75
2022/01/30 03:47:02;;;;;;;21.08;6.50;;;7.10;99.90;;;;;;5049630;28;20227;-76
2022/01/30 03:49:29;;;;;;;31.65;7.10;;;7.10;99.90;;;;;;5049848;28;20285;-75
2022/01/30 03:51:56;;;;;;;34.17;7.75;;;7.10;99.90;;;;;;5046281;28;20212;-77
2022/01/30 03:54:22;;;;;;;30.23;6.40;;;7.10;99.90;;;;;;5046414;28;20256;-76
2022/01/30 03:56:49;;;;;;;30.65;8.55;;;7.20;99.90;;;;;;5041263;28;20297;-79
2022/01/30 03:59:16;;;;;;;23.50;6.90;;;7.20;99.90;;;;;;5035657;28;20228;-80
2022/01/30 04:01:43;;;;;;;28.27;6.93;;;7.20;99.90;;;;;;5043463;28;20213;-76
2022/01/30 04:04:11;;;;;;;26.75;6.60;;;7.40;99.90;;;;;;5042844;28;20249;-77
2022/01/30 04:06:38;;;;;;;23.40;6.55;;;7.30;99.90;;;;;;5045467;28;20222;-76
2022/01/30 04:09:06;;;;;;;38.72;7.80;;;7.40;99.90;;;;;;5049152;28;20321;-76
2022/01/30 04:11:33;;;;;;;24.58;6.70;;;7.40;99.90;;;;;;5031159;28;20677;-78
2022/01/30 04:14:00;;;;;;;32.05;7.55;;;7.30;99.90;;;;;;5029043;28;20202;-77
2022/01/30 04:16:27;;;;;;;32.80;6.72;;;7.30;99.90;;;;;;5034106;28;20208;-77
2022/01/30 04:18:54;;;;;;;28.60;7.10;;;7.30;99.90;;;;;;5030907;28;20235;-77
2022/01/30 04:21:23;;;;;;;27.08;6.65;;;7.20;99.90;;;;;;5035284;28;20206;-79
2022/01/30 04:23:49;;;;;;;23.55;6.25;;;7.20;99.90;;;;;;5031184;28;20772;-78
2022/01/30 04:26:16;;;;;;;29.45;7.53;;;7.20;99.90;;;;;;5037162;28;20300;-78
2022/01/30 04:28:43;;;;;;;25.92;6.75;;;7.20;99.90;;;;;;5029939;28;20230;-79
2022/01/30 04:31:12;;;;;;;28.73;7.63;;;7.20;99.90;;;;;;5034644;28;20271;-79
2022/01/30 04:33:40;;;;;;;25.00;6.47;;;7.20;99.90;;;;;;5038919;28;20264;-77
2022/01/30 04:36:11;;;;;;;28.63;6.60;;;7.20;99.90;;;;;;5032817;28;20270;-77
2022/01/30 04:38:54;;;;;;;27.73;6.80;;;7.20;99.90;;;;;;5035414;28;20228;-77
2022/01/30 04:41:39;;;;;;;36.08;9.75;;;7.20;99.90;;;;;;5036042;28;20207;-77
2022/01/30 04:58:12;;;;;;;25.80;8.77;;;7.00;99.90;;;;;;4957818;28;20555;-79
2022/01/30 05:00:55;;;;;;;26.42;8.50;;;6.90;99.90;;;;;;5028366;28;20226;-78
2022/01/30 05:03:33;;;;;;;30.48;7.50;;;6.90;99.90;;;;;;5026770;28;20241;-78
2022/01/30 05:06:04;;;;;;;22.50;5.85;;;6.90;99.90;;;;;;5027187;28;20246;-78
2022/01/30 05:08:32;;;;;;;21.65;7.82;;;6.80;99.90;;;;;;5034621;28;20226;-78
2022/01/30 05:11:02;;;;;;;32.25;7.43;;;6.90;99.90;;;;;;5027863;28;20210;-77
2022/01/30 05:13:32;;;;;;;28.92;6.97;;;6.80;99.90;;;;;;5033387;28;20269;-77
2022/01/30 05:15:59;;;;;;;23.25;6.15;;;6.80;99.90;;;;;;5032014;28;20216;-77
2022/01/30 05:18:28;;;;;;;23.55;6.53;;;6.80;99.90;;;;;;5030233;28;20293;-78
2022/01/30 05:20:56;;;;;;;24.77;6.95;;;6.80;99.90;;;;;;5029582;28;21259;-78
2022/01/30 05:23:24;;;;;;;32.38;6.78;;;6.80;99.90;;;;;;5031006;28;20212;-78
2022/01/30 05:25:52;;;;;;;14.95;5.32;;;6.90;99.90;;;;;;5038002;28;20630;-78
2022/01/30 05:28:23;;;;;;;22.08;6.53;;;6.90;99.90;;;;;;5048753;28;20297;-77
2022/01/30 05:30:50;;;;;;;37.58;7.05;;;6.90;99.90;;;;;;5029947;28;20206;-77
2022/01/30 05:33:18;;;;;;;28.13;5.80;;;6.90;99.90;;;;;;5035370;28;20205;-76
2022/01/30 05:35:45;;;;;;;36.13;8.27;;;6.90;99.90;;;;;;5020912;28;20207;-77
2022/01/30 05:38:12;;;;;;;23.75;6.25;;;7.00;99.90;;;;;;5030794;28;20299;-77
2022/01/30 05:40:40;;;;;;;24.95;8.73;;;7.00;99.90;;;;;;5027397;28;20254;-78
2022/01/30 05:43:07;;;;;;;20.20;6.35;;;7.00;99.90;;;;;;5037058;28;20214;-78
2022/01/30 05:45:39;;;;;;;26.70;7.70;;;7.10;99.90;;;;;;5046984;28;20208;-75
2022/01/30 05:48:10;;;;;;;28.88;6.85;;;7.10;99.90;;;;;;5042695;28;20212;-77
2022/01/30 05:50:38;;;;;;;25.85;8.70;;;7.00;99.90;;;;;;5044966;28;20231;-78
2022/01/30 05:53:05;;;;;;;35.70;7.93;;;7.00;99.90;;;;;;5045169;28;20223;-77
2022/01/30 05:55:32;;;;;;;37.67;9.93;;;6.90;99.90;;;;;;5045552;28;20185;-76
2022/01/30 05:57:59;;;;;;;52.00;9.88;;;6.90;99.90;;;;;;5054497;28;20180;-76
2022/01/30 06:00:26;;;;;;;32.65;6.72;;;6.90;99.90;;;;;;5044697;28;20265;-76
2022/01/30 06:02:55;;;;;;;32.75;8.32;;;7.00;99.90;;;;;;5046124;28;20189;-76
2022/01/30 06:05:24;;;;;;;23.60;7.53;;;6.90;99.90;;;;;;5045483;28;20218;-77
2022/01/30 06:07:52;;;;;;;30.20;7.30;;;6.90;99.90;;;;;;5035227;28;20208;-77
2022/01/30 06:10:21;;;;;;;26.17;7.82;;;6.80;99.90;;;;;;5034526;28;20324;-77
2022/01/30 06:12:47;;;;;;;32.00;7.85;;;6.80;99.90;;;;;;5032066;28;20201;-77
2022/01/30 06:15:15;;;;;;;27.35;7.82;;;6.80;99.90;;;;;;5039856;28;20204;-76
2022/01/30 06:17:43;;;;;;;28.67;6.65;;;6.80;99.90;;;;;;5026933;28;20207;-77
2022/01/30 06:20:12;;;;;;;26.13;7.55;;;6.80;99.90;;;;;;5034811;28;20243;-78
2022/01/30 06:22:42;;;;;;;25.70;5.72;;;6.80;99.90;;;;;;5039580;28;20222;-79
2022/01/30 06:25:10;;;;;;;23.70;6.13;;;6.70;99.90;;;;;;5026743;28;20264;-77
2022/01/30 06:27:37;;;;;;;23.23;6.72;;;6.80;99.90;;;;;;5040122;28;20271;-77
2022/01/30 06:30:05;;;;;;;28.55;8.05;;;6.80;99.90;;;;;;5042546;28;20229;-78
2022/01/30 06:32:32;;;;;;;31.60;8.35;;;6.80;99.90;;;;;;5044821;28;20226;-78
2022/01/30 06:35:00;;;;;;;25.90;6.63;;;6.80;99.90;;;;;;5046736;28;20202;-79
2022/01/30 06:37:28;;;;;;;24.77;8.88;;;6.80;99.90;;;;;;5040784;28;20230;-78
2022/01/30 06:39:55;;;;;;;31.42;6.05;;;6.90;99.90;;;;;;5039367;28;20246;-79
2022/01/30 06:42:22;;;;;;;31.42;6.85;;;6.70;99.90;;;;;;5040936;28;20189;-78
2022/01/30 06:44:50;;;;;;;30.10;7.38;;;6.70;99.90;;;;;;5048763;28;20217;-78
2022/01/30 06:47:16;;;;;;;21.33;6.88;;;6.60;99.90;;;;;;5039714;28;20209;-78
2022/01/30 06:49:43;;;;;;;24.08;6.75;;;6.60;99.90;;;;;;5052270;28;20243;-77
2022/01/30 06:52:11;;;;;;;25.45;6.40;;;6.70;99.90;;;;;;5050646;28;20215;-78
2022/01/30 06:54:39;;;;;;;21.70;7.13;;;6.60;99.90;;;;;;5049329;28;20198;-78
2022/01/30 06:57:07;;;;;;;22.30;6.35;;;6.60;99.90;;;;;;5044268;28;20292;-78
2022/01/30 06:59:35;;;;;;;21.17;5.72;;;6.60;99.90;;;;;;5042253;28;21597;-76
2022/01/30 07:02:03;;;;;;;24.15;6.55;;;6.60;99.90;;;;;;5045455;28;20561;-77
2022/01/30 07:04:30;;;;;;;21.60;5.35;;;6.60;99.90;;;;;;5041119;28;20227;-77
2022/01/30 07:06:57;;;;;;;27.25;7.13;;;6.60;99.90;;;;;;5048329;28;20253;-78
2022/01/30 07:09:24;;;;;;;21.85;5.47;;;6.60;99.90;;;;;;5041652;28;20229;-77
2022/01/30 07:11:52;;;;;;;21.13;4.70;;;6.60;99.90;;;;;;5032499;28;20223;-79
2022/01/30 07:14:19;;;;;;;22.73;5.93;;;6.70;99.90;;;;;;5038496;28;20264;-78
2022/01/30 07:16:46;;;;;;;18.05;4.72;;;6.70;99.90;;;;;;5036236;28;20219;-77
2022/01/30 07:19:13;;;;;;;18.02;5.72;;;6.80;99.90;;;;;;5035541;28;20238;-77
2022/01/30 07:21:40;;;;;;;20.23;4.78;;;6.90;99.90;;;;;;5036291;28;20283;-78
2022/01/30 07:24:07;;;;;;;22.30;6.15;;;6.90;99.90;;;;;;5040306;28;20231;-78
2022/01/30 07:26:34;;;;;;;19.08;6.40;;;7.00;99.90;;;;;;5039849;28;20322;-78
2022/01/30 07:29:04;;;;;;;24.25;5.15;;;7.00;99.90;;;;;;5045774;28;20705;-78
2022/01/30 07:31:32;;;;;;;22.63;6.82;;;7.00;99.90;;;;;;5039144;28;20233;-77
2022/01/30 07:33:59;;;;;;;14.23;5.40;;;7.10;99.90;;;;;;5041789;28;20287;-78
2022/01/30 07:36:26;;;;;;;16.08;5.75;;;7.10;99.90;;;;;;5035835;28;20214;-81
2022/01/30 07:38:53;;;;;;;17.77;4.72;;;7.10;99.90;;;;;;5040787;28;20283;-79
2022/01/30 07:41:20;;;;;;;25.48;6.95;;;7.10;99.90;;;;;;5039477;28;20664;-80
2022/01/30 07:43:47;;;;;;;17.50;5.25;;;7.20;99.90;;;;;;5032796;28;20230;-79
2022/01/30 07:46:44;;;;;;;21.65;7.22;;;7.20;99.90;;;;;;5037947;28;20223;-84
2022/01/30 07:49:12;;;;;;;17.98;5.20;;;7.30;99.90;;;;;;5027595;28;20248;-81
2022/01/30 07:51:39;;;;;;;23.20;6.82;;;7.30;99.90;;;;;;5051029;28;20184;-79
2022/01/30 07:54:06;;;;;;;28.75;7.32;;;7.30;99.90;;;;;;5042015;28;20231;-82
2022/01/30 07:56:33;;;;;;;19.88;6.63;;;7.30;99.90;;;;;;5046358;28;20466;-83
2022/01/30 07:59:00;;;;;;;27.75;6.90;;;7.40;99.90;;;;;;5052299;28;20208;-83
2022/01/30 08:01:27;;;;;;;26.35;7.90;;;7.60;99.90;;;;;;5046624;28;20188;-83
2022/01/30 08:03:55;;;;;;;22.20;7.35;;;7.50;99.90;;;;;;5049159;28;20188;-81
2022/01/30 08:06:24;;;;;;;26.48;6.00;;;7.60;99.90;;;;;;5054870;28;20199;-81
2022/01/30 08:08:50;;;;;;;20.33;8.48;;;7.50;99.90;;;;;;5044773;28;20263;-82
2022/01/30 08:11:17;;;;;;;29.17;8.27;;;7.60;99.90;;;;;;5052389;28;20196;-85
2022/01/30 08:13:44;;;;;;;18.25;6.10;;;7.50;99.90;;;;;;5033303;28;20239;-86
2022/01/30 08:16:11;;;;;;;29.45;6.22;;;7.50;99.90;;;;;;5040021;28;20291;-85
2022/01/30 08:18:38;;;;;;;27.13;5.82;;;7.50;99.90;;;;;;5032430;28;20271;-83
2022/01/30 08:21:06;;;;;;;25.17;6.63;;;7.50;99.90;;;;;;5036953;28;20207;-83
2022/01/30 08:23:34;;;;;;;33.63;7.85;;;7.60;99.90;;;;;;5042178;28;20195;-86
2022/01/30 08:26:01;;;;;;;23.48;5.55;;;7.70;99.90;;;;;;5031041;28;20246;-86
2022/01/30 08:28:28;;;;;;;27.10;7.72;;;7.70;99.90;;;;;;5032560;28;20232;-87
2022/01/30 08:30:55;;;;;;;28.35;6.47;;;7.80;99.90;;;;;;5041820;28;20231;-85
2022/01/30 08:33:22;;;;;;;28.05;8.35;;;7.90;99.90;;;;;;5036333;28;20233;-85
2022/01/30 08:35:50;;;;;;;33.10;8.02;;;7.90;99.90;;;;;;5030967;28;20192;-85
2022/01/30 08:38:18;;;;;;;38.80;7.15;;;8.00;99.90;;;;;;5045887;28;20256;-86
2022/01/30 08:40:47;;;;;;;25.92;6.68;;;8.30;99.90;;;;;;5042865;28;20215;-87
2022/01/30 08:43:14;;;;;;;23.52;7.53;;;9.10;99.30;;;;;;5038974;28;20184;-86
2022/01/30 08:45:42;;;;;;;35.05;9.70;;;9.70;97.90;;;;;;5026294;28;20208;-86
2022/01/30 08:48:09;;;;;;;29.33;7.55;;;9.70;96.10;;;;;;5028017;28;20201;-87
2022/01/30 08:50:36;;;;;;;35.35;8.30;;;9.50;96.10;;;;;;5030530;28;20239;-84
2022/01/30 08:53:04;;;;;;;29.15;9.25;;;9.20;96.60;;;;;;5037623;28;20200;-86
2022/01/30 08:55:33;;;;;;;26.30;8.15;;;9.00;96.50;;;;;;5035755;28;20228;-85
2022/01/30 08:58:07;;;;;;;24.88;8.15;;;8.90;96.80;;;;;;5034183;28;20231;-85
2022/01/30 09:00:35;;;;;;;25.10;6.65;;;8.70;97.30;;;;;;5018989;28;20308;-88
2022/01/30 09:03:03;;;;;;;27.98;7.32;;;8.70;99.90;;;;;;5036120;28;20203;-86
2022/01/30 09:05:31;;;;;;;27.70;7.22;;;8.70;99.20;;;;;;5039210;28;20275;-86
2022/01/30 09:07:58;;;;;;;28.48;7.82;;;8.60;99.90;;;;;;5042015;28;20205;-85
2022/01/30 09:10:25;;;;;;;27.63;7.68;;;8.50;99.90;;;;;;5036824;28;20266;-87
2022/01/30 09:12:52;;;;;;;26.75;8.25;;;8.50;99.90;;;;;;5030789;28;20209;-84
2022/01/30 09:15:20;;;;;;;30.63;6.85;;;8.20;99.90;;;;;;5039076;28;20204;-87
2022/01/30 09:17:47;;;;;;;33.38;8.10;;;8.90;99.90;;;;;;5031718;28;20220;-85
2022/01/30 09:20:15;;;;;;;32.90;8.63;;;9.70;97.80;;;;;;5035003;28;20251;-86
2022/01/30 09:22:43;;;;;;;37.55;7.88;;;10.10;95.90;;;;;;5036738;28;20219;-85
2022/01/30 09:25:11;;;;;;;27.35;7.93;;;10.60;93.70;;;;;;5036791;28;20575;-85
2022/01/30 09:27:39;;;;;;;30.70;7.70;;;11.10;93.40;;;;;;5052134;28;20641;-87
2022/01/30 09:30:19;;;;;;;35.45;7.90;;;11.70;92.50;;;;;;5037621;28;20225;-85
2022/01/30 09:32:48;;;;;;;31.30;7.75;;;11.90;91.20;;;;;;5027235;28;20212;-85
2022/01/30 09:35:15;;;;;;;30.15;9.02;;;11.80;90.90;;;;;;5036654;28;20206;-86
2022/01/30 09:37:42;;;;;;;37.28;10.07;;;11.70;91.00;;;;;;5037542;28;20937;-85
2022/01/30 09:40:10;;;;;;;26.08;8.85;;;11.50;91.30;;;;;;5030110;28;20216;-86
2022/01/30 09:42:44;;;;;;;29.23;8.13;;;11.60;90.50;;;;;;5039174;28;20202;-86
2022/01/30 09:45:12;;;;;;;27.08;8.55;;;11.70;90.10;;;;;;5020415;28;20261;-84
2022/01/30 09:47:40;;;;;;;28.80;8.25;;;11.20;90.50;;;;;;5033431;28;20218;-83
2022/01/30 09:50:10;;;;;;;44.38;9.65;;;11.00;91.10;;;;;;5028473;28;20224;-83
2022/01/30 09:52:38;;;;;;;35.50;9.85;;;10.70;91.90;;;;;;5025106;28;20203;-84
2022/01/30 09:55:06;;;;;;;33.33;9.23;;;10.20;93.30;;;;;;5018729;28;20201;-85
2022/01/30 09:57:33;;;;;;;35.42;8.38;;;9.80;94.40;;;;;;5040137;28;20208;-85
2022/01/30 10:00:00;;;;;;;35.97;11.00;;;9.70;95.90;;;;;;5023635;28;20724;-86
2022/01/30 10:02:27;;;;;;;27.48;10.75;;;10.40;95.10;;;;;;5039718;28;20209;-81
2022/01/30 10:04:55;;;;;;;35.35;11.15;;;10.60;94.20;;;;;;5054532;28;20200;-87
2022/01/30 10:07:37;;;;;;;43.33;9.25;;;10.50;93.80;;;;;;5032355;28;20197;-86
2022/01/30 10:10:12;;;;;;;45.17;11.05;;;10.10;95.00;;;;;;5046710;28;20278;-86
2022/01/30 10:15:11;;;;;;;31.75;9.30;;;10.90;94.20;;;;;;5039871;28;20226;-75
2022/01/30 10:17:39;;;;;;;37.03;10.50;;;10.70;94.60;;;;;;5032915;28;20264;-75
2022/01/30 10:20:10;;;;;;;35.90;10.15;;;10.80;94.80;;;;;;5032647;28;20210;-76
2022/01/30 10:22:49;;;;;;;37.60;9.82;;;11.10;93.40;;;;;;5034452;28;20220;-76
2022/01/30 10:25:22;;;;;;;37.15;10.75;;;11.40;93.50;;;;;;5028825;28;20231;-76
2022/01/30 10:27:50;;;;;;;40.28;9.90;;;11.50;92.80;;;;;;5040968;28;20637;-77
2022/01/30 10:30:23;;;;;;;36.05;9.43;;;11.10;93.00;;;;;;5031322;28;20200;-78
2022/01/30 10:32:57;;;;;;;32.30;9.43;;;10.70;93.80;;;;;;5010821;28;20227;-76
2022/01/30 10:35:26;;;;;;;35.20;7.85;;;10.10;94.40;;;;;;5031976;28;20204;-75
2022/01/30 10:37:54;;;;;;;35.90;9.90;;;9.90;94.80;;;;;;5029509;28;20571;-76
2022/01/30 10:40:35;;;;;;;29.05;9.40;;;10.30;93.70;;;;;;5032401;28;20218;-77
2022/01/30 10:43:02;;;;;;;24.38;6.63;;;10.60;92.60;;;;;;5015664;28;20306;-79
2022/01/30 10:45:31;;;;;;;30.20;6.68;;;10.60;91.00;;;;;;5033356;28;20572;-76
2022/01/30 10:48:12;;;;;;;32.92;7.18;;;10.40;91.20;;;;;;5032578;28;20213;-77
2022/01/30 10:50:41;;;;;;;38.22;8.00;;;10.80;90.30;;;;;;5031900;28;20206;-76
2022/01/30 10:53:18;;;;;;;36.97;8.32;;;10.90;90.20;;;;;;5041132;28;20300;-77
2022/01/30 10:55:46;;;;;;;35.25;9.10;;;10.70;90.10;;;;;;5035636;28;20279;-76
2022/01/30 10:58:16;;;;;;;38.13;8.93;;;10.60;91.10;;;;;;5037550;28;20351;-77
2022/01/30 11:00:46;;;;;;;24.60;7.78;;;10.50;91.50;;;;;;5031835;28;20216;-77
2022/01/30 11:03:44;;;;;;;29.23;7.72;;;10.30;92.20;;;;;;5032866;28;20236;-74
2022/01/30 11:06:15;;;;;;;42.80;10.55;;;10.00;92.70;;;;;;5028940;28;20632;-76
2022/01/30 11:08:47;;;;;;;32.55;8.05;;;10.10;93.00;;;;;;5034262;28;20247;-77
2022/01/30 11:11:26;;;;;;;36.60;9.30;;;10.10;93.20;;;;;;5035165;28;20312;-75
2022/01/30 11:14:13;;;;;;;24.20;6.43;;;10.20;93.00;;;;;;5034278;28;20232;-76
2022/01/30 11:17:02;;;;;;;34.63;8.35;;;10.30;92.80;;;;;;5040053;28;20571;-76
2022/01/30 11:19:31;;;;;;;30.25;8.45;;;10.30;92.50;;;;;;5034267;28;20200;-76
2022/01/30 11:22:00;;;;;;;23.42;8.27;;;10.10;92.60;;;;;;5034903;28;20224;-77
2022/01/30 11:24:33;;;;;;;31.50;9.55;;;10.00;92.90;;;;;;5034819;28;20227;-77
2022/01/30 11:27:01;;;;;;;45.00;9.23;;;9.70;93.70;;;;;;5035799;28;20320;-75
2022/01/30 11:29:30;;;;;;;27.70;10.05;;;9.60;94.50;;;;;;5034735;28;20224;-78
2022/01/30 11:31:57;;;;;;;42.38;9.40;;;9.20;95.10;;;;;;5035467;28;20221;-77
2022/01/30 11:34:26;;;;;;;35.42;9.35;;;9.10;95.60;;;;;;5038808;28;20204;-76
2022/01/30 11:36:54;;;;;;;38.53;9.65;;;9.00;96.40;;;;;;5046949;28;20488;-77
2022/01/30 11:39:22;;;;;;;37.67;8.55;;;9.00;97.00;;;;;;5036810;28;20477;-77
2022/01/30 11:42:14;;;;;;;30.17;8.68;;;8.90;97.30;;;;;;5037880;28;20703;-77
2022/01/30 11:44:43;;;;;;;33.20;9.00;;;9.10;97.10;;;;;;5038829;28;20204;-76
2022/01/30 11:47:19;;;;;;;26.45;7.78;;;9.20;96.60;;;;;;5039072;28;20228;-75
2022/01/30 11:49:49;;;;;;;34.70;8.52;;;9.40;96.80;;;;;;5036813;28;20221;-76
2022/01/30 11:52:18;;;;;;;39.17;8.95;;;9.50;96.40;;;;;;5027969;28;20292;-76
2022/01/30 11:54:47;;;;;;;30.50;8.98;;;9.50;96.40;;;;;;5040573;28;20331;-75
2022/01/30 11:57:48;;;;;;;31.83;7.88;;;9.50;96.00;;;;;;5048402;28;20192;-76
2022/01/30 12:00:49;;;;;;;28.58;7.80;;;9.50;96.10;;;;;;4995384;28;20600;-77
2022/01/30 12:03:25;;;;;;;27.13;7.13;;;9.20;94.30;;;;;;5033203;28;20282;-77
2022/01/30 12:05:52;;;;;;;22.50;6.90;;;9.20;94.30;;;;;;5037914;28;20313;-76
2022/01/30 12:08:44;;;;;;;39.75;8.80;;;9.40;94.10;;;;;;5037831;28;20203;-75
2022/01/30 12:11:54;;;;;;;29.95;7.15;;;9.30;93.20;;;;;;5028259;28;20224;-75
2022/01/30 12:14:48;;;;;;;25.83;5.78;;;9.50;93.10;;;;;;5015949;28;20271;-77
2022/01/30 12:17:36;;;;;;;25.10;6.72;;;9.50;93.00;;;;;;5027013;28;20207;-77
2022/01/30 12:20:05;;;;;;;29.00;7.75;;;9.40;93.10;;;;;;5035619;28;20219;-75
2022/01/30 12:22:41;;;;;;;25.70;7.43;;;9.30;93.60;;;;;;5037326;28;20223;-76
2022/01/30 12:25:39;;;;;;;29.90;7.72;;;9.20;94.20;;;;;;5037839;28;20527;-77
2022/01/30 12:28:09;;;;;;;28.63;8.07;;;9.20;95.00;;;;;;5038533;28;20204;-77
2022/01/30 12:30:55;;;;;;;35.53;10.30;;;9.20;95.10;;;;;;5036449;28;20227;-76
2022/01/30 12:33:46;;;;;;;21.42;6.40;;;8.90;95.70;;;;;;5033804;28;20200;-76
2022/01/30 12:36:19;;;;;;;31.42;8.00;;;8.90;96.00;;;;;;5037059;28;20200;-76
2022/01/30 12:38:46;;;;;;;35.42;8.23;;;8.90;95.90;;;;;;5037457;28;20588;-75
2022/01/30 12:41:15;;;;;;;20.90;7.00;;;8.80;96.40;;;;;;5037387;28;20255;-76
2022/01/30 12:43:42;;;;;;;25.85;7.60;;;8.80;96.60;;;;;;5036966;28;20292;-77
2022/01/30 12:46:12;;;;;;;25.70;8.45;;;8.80;96.60;;;;;;5039994;28;20297;-77
2022/01/30 12:48:40;;;;;;;33.53;9.73;;;8.80;96.70;;;;;;5037789;28;20593;-77
2022/01/30 12:51:13;;;;;;;20.98;7.20;;;8.80;96.50;;;;;;5038850;28;20580;-77
2022/01/30 12:53:42;;;;;;;26.27;6.78;;;8.80;96.40;;;;;;5036587;28;20228;-75
2022/01/30 12:56:10;;;;;;;42.05;7.63;;;8.70;96.60;;;;;;5038665;28;20263;-75
2022/01/30 12:58:44;;;;;;;31.95;7.95;;;8.70;96.70;;;;;;5045754;28;20196;-77
2022/01/30 13:01:14;;;;;;;27.80;7.32;;;8.70;96.20;;;;;;5036303;28;20223;-77
2022/01/30 13:03:42;;;;;;;29.60;6.90;;;8.60;95.30;;;;;;5037148;28;20592;-76
2022/01/30 13:06:09;;;;;;;42.08;10.75;;;8.70;95.40;;;;;;5045351;28;20233;-75
2022/01/30 13:08:51;;;;;;;29.40;7.20;;;8.80;94.70;;;;;;5037502;28;20250;-76
2022/01/30 13:11:23;;;;;;;23.30;8.70;;;8.90;94.40;;;;;;5032057;28;20255;-78
2022/01/30 13:13:56;;;;;;;30.90;6.80;;;8.80;94.30;;;;;;5044353;28;20215;-78
2022/01/30 13:16:24;;;;;;;26.08;7.00;;;8.80;94.60;;;;;;5032462;28;20200;-76
2022/01/30 13:18:53;;;;;;;17.55;5.88;;;8.90;94.40;;;;;;5036606;28;20311;-77
2022/01/30 13:21:25;;;;;;;33.03;8.60;;;8.80;94.60;;;;;;5029898;28;20307;-75
2022/01/30 13:23:53;;;;;;;53.30;7.72;;;8.80;94.40;;;;;;5037479;28;20204;-75
2022/01/30 13:26:39;;;;;;;27.23;7.88;;;8.80;94.60;;;;;;5041638;28;20209;-78
2022/01/30 13:29:12;;;;;;;27.77;7.20;;;8.70;94.80;;;;;;5032920;28;20224;-76
2022/01/30 13:31:41;;;;;;;27.73;6.88;;;8.70;95.00;;;;;;5051366;28;20245;-77
2022/01/30 13:34:29;;;;;;;24.50;7.28;;;8.70;95.10;;;;;;5037694;28;20596;-77
2022/01/30 13:37:04;;;;;;;19.85;5.60;;;8.60;95.40;;;;;;5029853;28;20192;-76